Time;durP1;ratioP1;P1;durP2;ratioP2;P2;SDS_P1;SDS_P2;PMS_P1;PMS_P2;Temp;Humidity;BMP_temperature;BMP_pressure;BME280_temperature;BME280_humidity;BME280_pressure;Samples;Min_cycle;Max_cycle;Signal;HPM_P1;HPM_P2
2023/03/10 00:00:37;;;;;;;4.10;1.50;;;10.00;87.50;;;;;;5016201;28;20085;-67
2023/03/10 00:03:03;;;;;;;6.25;1.35;;;10.00;87.30;;;;;;5031068;28;20500;-68
2023/03/10 00:05:29;;;;;;;9.05;2.15;;;9.90;87.60;;;;;;5018635;28;20034;-68
2023/03/10 00:07:54;;;;;;;5.90;1.88;;;9.70;88.10;;;;;;5020049;28;20025;-68
2023/03/10 00:10:20;;;;;;;6.40;1.98;;;9.70;88.50;;;;;;5027239;28;20394;-68
2023/03/10 00:12:45;;;;;;;5.43;1.45;;;9.70;88.40;;;;;;5026248;28;20378;-67
2023/03/10 00:15:11;;;;;;;7.80;1.90;;;9.70;88.40;;;;;;5035273;28;20021;-68
2023/03/10 00:17:37;;;;;;;6.18;1.73;;;9.50;88.80;;;;;;5030353;28;20057;-68
2023/03/10 00:20:10;;;;;;;4.05;1.45;;;9.40;89.20;;;;;;5015696;28;20080;-68
2023/03/10 00:22:37;;;;;;;4.63;1.60;;;9.40;89.30;;;;;;5019825;28;20317;-68
2023/03/10 00:25:02;;;;;;;4.97;1.95;;;9.30;89.50;;;;;;5035383;28;20029;-68
2023/03/10 00:27:28;;;;;;;8.50;1.90;;;9.10;90.20;;;;;;5030339;28;20323;-68
2023/03/10 00:29:53;;;;;;;5.82;1.73;;;9.10;90.00;;;;;;5032365;28;20362;-68
2023/03/10 00:32:19;;;;;;;6.63;2.00;;;9.00;90.20;;;;;;5032630;28;20053;-67
2023/03/10 00:34:44;;;;;;;8.45;1.80;;;8.90;90.50;;;;;;5015413;28;20076;-68
2023/03/10 00:37:10;;;;;;;7.22;1.52;;;8.80;90.70;;;;;;5016572;28;20026;-68
2023/03/10 00:39:36;;;;;;;5.15;1.95;;;8.80;90.80;;;;;;5016845;28;20026;-68
2023/03/10 00:42:01;;;;;;;6.43;2.10;;;8.80;90.50;;;;;;5022640;28;20034;-67
2023/03/10 00:44:27;;;;;;;5.15;1.50;;;8.90;90.40;;;;;;5016139;28;20030;-68
2023/03/10 00:46:53;;;;;;;7.57;1.67;;;8.80;90.50;;;;;;5015502;28;20315;-68
2023/03/10 00:49:19;;;;;;;7.65;1.98;;;8.80;90.40;;;;;;5022413;28;20160;-68
2023/03/10 00:51:45;;;;;;;7.63;1.70;;;9.00;90.30;;;;;;5030788;28;20466;-68
2023/03/10 00:54:11;;;;;;;9.32;1.80;;;9.10;90.20;;;;;;5019075;28;20026;-67
2023/03/10 00:56:37;;;;;;;8.00;2.00;;;9.20;90.00;;;;;;5019093;28;20191;-68
2023/03/10 00:59:03;;;;;;;6.80;1.60;;;9.40;89.50;;;;;;5020203;28;20050;-68
2023/03/10 01:01:35;;;;;;;8.75;2.05;;;9.50;88.90;;;;;;5038448;28;20369;-67
2023/03/10 01:04:04;;;;;;;6.20;1.80;;;9.60;88.70;;;;;;5025322;28;20037;-68
2023/03/10 01:06:30;;;;;;;7.63;1.70;;;9.80;88.40;;;;;;5035631;28;20048;-68
2023/03/10 01:08:55;;;;;;;7.40;1.88;;;10.00;87.60;;;;;;5036500;28;20076;-68
2023/03/10 01:11:25;;;;;;;7.45;1.98;;;10.20;87.00;;;;;;5017246;28;20045;-68
2023/03/10 01:13:52;;;;;;;5.95;1.52;;;10.30;86.80;;;;;;5019709;28;20105;-68
2023/03/10 01:16:17;;;;;;;7.00;2.00;;;10.30;86.80;;;;;;5030065;28;20028;-67
2023/03/10 01:18:43;;;;;;;5.57;1.33;;;10.30;86.80;;;;;;5038667;28;20044;-67
2023/03/10 01:21:16;;;;;;;6.45;1.70;;;10.40;86.70;;;;;;5037632;28;20087;-67
2023/03/10 01:23:41;;;;;;;6.35;1.58;;;10.50;86.70;;;;;;5028256;28;20036;-67
2023/03/10 01:26:07;;;;;;;5.53;1.52;;;10.60;86.60;;;;;;5036019;28;20026;-67
2023/03/10 01:28:33;;;;;;;6.07;1.58;;;10.70;86.60;;;;;;5028333;28;20310;-67
2023/03/10 01:31:03;;;;;;;5.55;1.60;;;10.60;86.60;;;;;;5030545;28;20053;-67
2023/03/10 01:33:29;;;;;;;7.18;1.67;;;10.60;87.10;;;;;;5035649;28;20017;-67
2023/03/10 01:35:54;;;;;;;4.80;1.45;;;10.50;87.60;;;;;;5037980;28;20032;-67
2023/03/10 01:38:20;;;;;;;6.50;1.40;;;10.50;88.10;;;;;;5029585;28;20069;-67
2023/03/10 01:40:49;;;;;;;3.47;1.35;;;10.50;88.20;;;;;;5043727;28;20021;-67
2023/03/10 01:43:26;;;;;;;7.22;2.38;;;10.40;88.50;;;;;;5033507;28;20022;-67
2023/03/10 01:45:52;;;;;;;7.18;1.40;;;10.40;88.80;;;;;;5030490;28;20029;-67
2023/03/10 01:48:20;;;;;;;4.95;1.33;;;10.30;89.00;;;;;;5025102;28;20026;-67
2023/03/10 01:50:50;;;;;;;3.25;1.05;;;10.30;89.20;;;;;;5035092;28;20033;-67
2023/03/10 01:53:18;;;;;;;3.75;1.15;;;10.20;89.50;;;;;;5024618;28;20025;-67
2023/03/10 01:55:51;;;;;;;3.65;1.20;;;10.20;89.80;;;;;;5018574;28;20037;-67
2023/03/10 01:58:19;;;;;;;4.75;1.20;;;10.10;90.20;;;;;;5018305;28;20112;-67
2023/03/10 02:00:45;;;;;;;5.70;1.33;;;10.10;90.60;;;;;;5029745;28;20149;-67
2023/03/10 02:03:16;;;;;;;4.72;1.40;;;10.00;91.30;;;;;;5033611;28;20374;-67
2023/03/10 02:05:48;;;;;;;3.95;1.42;;;9.70;92.90;;;;;;5028972;28;20026;-67
2023/03/10 02:08:18;;;;;;;4.18;1.20;;;9.30;94.70;;;;;;5029894;28;20025;-67
2023/03/10 02:10:45;;;;;;;3.05;1.10;;;8.90;95.80;;;;;;5025050;28;20039;-67
2023/03/10 02:13:10;;;;;;;4.35;1.23;;;8.60;96.80;;;;;;5031897;28;20037;-68
2023/03/10 02:15:36;;;;;;;3.15;1.25;;;8.40;97.00;;;;;;5024302;28;20037;-69
2023/03/10 02:18:03;;;;;;;2.53;1.05;;;8.30;97.10;;;;;;5019656;28;20292;-70
2023/03/10 02:20:39;;;;;;;4.25;1.27;;;8.20;97.50;;;;;;5018288;28;20021;-69
2023/03/10 02:23:06;;;;;;;4.43;1.30;;;8.10;96.20;;;;;;5016838;28;20322;-70
2023/03/10 02:25:50;;;;;;;5.85;1.33;;;8.00;95.60;;;;;;5016374;28;20076;-69
2023/03/10 02:28:17;;;;;;;3.90;1.10;;;7.80;93.70;;;;;;5019588;28;20013;-70
2023/03/10 02:30:46;;;;;;;1.70;0.93;;;7.70;94.40;;;;;;5022960;28;20080;-70
2023/03/10 02:33:32;;;;;;;3.42;1.20;;;7.80;96.70;;;;;;5016600;28;20088;-69
2023/03/10 02:36:15;;;;;;;4.90;1.02;;;7.80;95.80;;;;;;5032708;28;20029;-69
2023/03/10 02:38:41;;;;;;;4.47;1.10;;;7.80;95.70;;;;;;5033873;28;20056;-69
2023/03/10 02:41:22;;;;;;;2.95;0.90;;;7.80;96.70;;;;;;5023075;28;20084;-68
2023/03/10 02:43:48;;;;;;;1.67;0.80;;;7.80;97.00;;;;;;5032101;28;20032;-68
2023/03/10 02:46:17;;;;;;;2.55;0.85;;;7.80;96.30;;;;;;5020066;28;20042;-68
2023/03/10 02:48:42;;;;;;;1.67;0.80;;;7.80;96.90;;;;;;5029087;28;20025;-69
2023/03/10 02:51:25;;;;;;;2.55;0.80;;;7.80;96.90;;;;;;5030015;28;20036;-69
2023/03/10 02:53:54;;;;;;;1.42;0.80;;;7.70;96.50;;;;;;5029732;28;20103;-69
2023/03/10 02:56:19;;;;;;;1.88;0.73;;;7.60;95.70;;;;;;5031507;28;20109;-68
2023/03/10 02:58:45;;;;;;;1.83;0.90;;;7.70;97.30;;;;;;5034035;28;20429;-69
2023/03/10 03:01:10;;;;;;;1.50;0.80;;;7.80;97.30;;;;;;5033018;28;20112;-69
2023/03/10 03:03:36;;;;;;;1.40;0.80;;;7.80;97.50;;;;;;5022070;28;20087;-68
2023/03/10 03:06:02;;;;;;;1.27;0.80;;;7.70;96.30;;;;;;5029184;28;20028;-68
2023/03/10 03:08:28;;;;;;;1.40;0.73;;;7.70;97.20;;;;;;5017430;28;20024;-68
2023/03/10 03:10:53;;;;;;;1.35;0.80;;;7.90;97.50;;;;;;5025512;28;20036;-68
2023/03/10 03:13:19;;;;;;;1.30;0.73;;;7.90;97.40;;;;;;5023604;28;20317;-68
2023/03/10 03:15:45;;;;;;;1.85;0.90;;;8.00;98.00;;;;;;5027588;28;20079;-68
2023/03/10 03:18:11;;;;;;;1.67;0.90;;;7.90;97.50;;;;;;5028866;28;20029;-68
2023/03/10 03:20:39;;;;;;;3.85;0.90;;;8.20;98.00;;;;;;5034945;28;20051;-69
2023/03/10 03:23:04;;;;;;;1.20;0.70;;;8.40;98.00;;;;;;5033220;28;20079;-68
2023/03/10 03:25:34;;;;;;;2.75;0.80;;;8.50;97.90;;;;;;5021403;28;20432;-69
2023/03/10 03:28:00;;;;;;;1.98;0.82;;;8.50;98.00;;;;;;5022964;28;20362;-67
2023/03/10 03:30:26;;;;;;;2.40;1.10;;;8.60;98.00;;;;;;5025835;28;20052;-67
2023/03/10 03:32:53;;;;;;;2.38;0.95;;;8.70;98.00;;;;;;5030427;28;20147;-67
2023/03/10 03:35:26;;;;;;;4.25;1.02;;;8.80;98.00;;;;;;5019998;28;20076;-68
2023/03/10 03:37:53;;;;;;;2.87;1.00;;;8.80;97.80;;;;;;5031242;28;20022;-67
2023/03/10 03:40:20;;;;;;;3.47;1.10;;;8.90;97.80;;;;;;5025651;28;20029;-68
2023/03/10 03:42:48;;;;;;;3.70;1.00;;;9.00;97.30;;;;;;5032998;28;20025;-68
2023/03/10 03:45:15;;;;;;;4.00;1.20;;;9.00;97.50;;;;;;5027616;28;20038;-68
2023/03/10 03:47:42;;;;;;;5.30;1.27;;;9.00;97.60;;;;;;5028187;28;20026;-68
2023/03/10 03:50:10;;;;;;;3.13;1.10;;;9.00;97.50;;;;;;5035057;28;20033;-68
2023/03/10 03:52:36;;;;;;;4.55;1.20;;;8.90;97.40;;;;;;5026333;28;20111;-68
2023/03/10 03:55:01;;;;;;;3.92;1.33;;;8.80;97.60;;;;;;5030807;28;20061;-68
2023/03/10 03:57:27;;;;;;;3.15;1.23;;;8.80;97.70;;;;;;5027796;28;20040;-68
2023/03/10 03:59:53;;;;;;;2.60;1.00;;;8.60;97.90;;;;;;5001616;28;20583;-68
2023/03/10 04:02:18;;;;;;;3.53;1.27;;;8.60;98.00;;;;;;5020051;28;20151;-68
2023/03/10 04:04:44;;;;;;;3.42;1.23;;;8.60;98.00;;;;;;5024691;28;20110;-68
2023/03/10 04:07:10;;;;;;;3.63;1.20;;;8.60;98.00;;;;;;5033506;28;20318;-67
2023/03/10 04:09:38;;;;;;;4.40;1.23;;;8.70;97.80;;;;;;5028805;28;20151;-67
2023/03/10 04:12:05;;;;;;;3.08;1.05;;;8.80;97.60;;;;;;5049427;28;20376;-67
2023/03/10 04:14:31;;;;;;;4.05;1.10;;;8.80;97.70;;;;;;5025655;28;20030;-67
2023/03/10 04:16:56;;;;;;;4.80;1.00;;;8.80;97.70;;;;;;5015778;28;20310;-69
2023/03/10 04:19:22;;;;;;;3.75;1.08;;;8.70;97.70;;;;;;5016264;28;20037;-67
2023/03/10 04:21:48;;;;;;;5.22;1.30;;;8.60;97.60;;;;;;5029570;28;20026;-66
2023/03/10 04:24:13;;;;;;;4.20;1.10;;;8.70;97.40;;;;;;5028558;28;20026;-67
2023/03/10 04:26:39;;;;;;;4.15;1.20;;;8.70;97.40;;;;;;5018423;28;20048;-67
2023/03/10 04:29:04;;;;;;;3.38;1.10;;;8.80;97.40;;;;;;5026797;28;20080;-67
2023/03/10 04:31:30;;;;;;;2.78;1.02;;;8.90;96.90;;;;;;5019467;28;20379;-67
2023/03/10 04:33:56;;;;;;;3.42;1.08;;;8.60;97.30;;;;;;5029430;28;20037;-67
2023/03/10 04:36:21;;;;;;;2.53;0.98;;;8.50;97.90;;;;;;5030988;28;20104;-68
2023/03/10 04:38:47;;;;;;;4.63;1.10;;;8.40;98.00;;;;;;5028534;28;20437;-67
2023/03/10 04:41:13;;;;;;;3.35;1.08;;;8.50;97.70;;;;;;5025079;28;20033;-68
2023/03/10 04:43:38;;;;;;;4.18;1.30;;;8.60;97.10;;;;;;5022427;28;20037;-67
2023/03/10 04:46:04;;;;;;;3.03;1.00;;;8.80;96.60;;;;;;5030759;28;20318;-67
2023/03/10 04:48:30;;;;;;;4.53;1.02;;;8.80;96.20;;;;;;5030826;28;20101;-67
2023/03/10 04:51:01;;;;;;;3.22;1.00;;;8.80;96.00;;;;;;5039003;28;20072;-67
2023/03/10 04:53:28;;;;;;;4.43;1.00;;;8.80;96.40;;;;;;5032761;28;20034;-66
2023/03/10 04:55:53;;;;;;;3.70;1.27;;;8.80;95.90;;;;;;5019127;28;20054;-67
2023/03/10 04:58:20;;;;;;;4.80;1.08;;;8.90;95.60;;;;;;5018555;28;20386;-67
2023/03/10 05:00:47;;;;;;;2.88;1.02;;;9.00;95.40;;;;;;5018566;28;20045;-67
2023/03/10 05:03:12;;;;;;;4.22;1.25;;;9.10;95.00;;;;;;5027299;28;20030;-67
2023/03/10 05:05:38;;;;;;;3.28;1.00;;;9.10;95.00;;;;;;5027872;28;20036;-67
2023/03/10 05:08:04;;;;;;;3.92;1.10;;;9.10;95.20;;;;;;5024167;28;20021;-67
2023/03/10 05:10:30;;;;;;;4.60;1.08;;;9.10;95.50;;;;;;5032271;28;20091;-67
2023/03/10 05:12:58;;;;;;;3.22;1.00;;;9.10;95.30;;;;;;5050723;28;20472;-67
2023/03/10 05:15:23;;;;;;;3.17;0.90;;;9.20;95.20;;;;;;5029654;28;20034;-67
2023/03/10 05:17:50;;;;;;;3.20;1.20;;;9.10;95.50;;;;;;5018466;28;20030;-67
2023/03/10 05:20:16;;;;;;;3.75;1.33;;;9.00;96.10;;;;;;5025175;28;20030;-65
2023/03/10 05:22:42;;;;;;;2.20;0.90;;;8.90;96.20;;;;;;5034187;28;20314;-67
2023/03/10 05:25:10;;;;;;;3.40;1.10;;;8.90;96.70;;;;;;5036093;28;20028;-67
2023/03/10 05:27:37;;;;;;;3.60;1.27;;;8.90;96.70;;;;;;5023805;28;20018;-67
2023/03/10 05:30:04;;;;;;;4.10;1.10;;;8.90;96.50;;;;;;5028224;28;20103;-67
2023/03/10 05:32:33;;;;;;;2.65;1.00;;;8.80;96.70;;;;;;5041726;28;20029;-66
2023/03/10 05:34:59;;;;;;;3.00;1.08;;;8.80;96.80;;;;;;5036737;28;20018;-66
2023/03/10 05:37:24;;;;;;;2.90;1.15;;;8.80;96.80;;;;;;5035299;28;20029;-66
2023/03/10 05:39:53;;;;;;;3.13;1.17;;;8.80;97.10;;;;;;5031580;28;20029;-69
2023/03/10 05:42:18;;;;;;;4.25;1.17;;;8.60;97.30;;;;;;5037174;28;20503;-67
2023/03/10 05:44:44;;;;;;;4.07;1.13;;;8.30;97.70;;;;;;5040375;28;20033;-67
2023/03/10 05:47:10;;;;;;;2.95;1.05;;;8.00;97.40;;;;;;5038279;28;20048;-67
2023/03/10 05:49:36;;;;;;;6.38;1.52;;;7.90;95.90;;;;;;5037311;28;20092;-70
2023/03/10 05:52:01;;;;;;;2.47;0.90;;;7.70;96.20;;;;;;5038613;28;20414;-70
2023/03/10 05:54:27;;;;;;;2.15;1.00;;;7.60;94.70;;;;;;5026785;28;20050;-68
2023/03/10 05:56:52;;;;;;;3.53;1.10;;;7.40;93.00;;;;;;5029228;28;20037;-68
2023/03/10 05:59:18;;;;;;;1.98;0.90;;;7.40;93.20;;;;;;5028196;28;20039;-69
2023/03/10 06:01:44;;;;;;;4.43;0.93;;;7.40;94.70;;;;;;5027952;28;20045;-69
2023/03/10 06:04:12;;;;;;;2.42;1.00;;;7.40;93.00;;;;;;5038066;28;20025;-68
2023/03/10 06:06:37;;;;;;;3.58;1.13;;;7.20;91.60;;;;;;5037026;28;20052;-68
2023/03/10 06:09:03;;;;;;;1.80;0.98;;;7.20;91.20;;;;;;5020961;28;20402;-68
2023/03/10 06:11:32;;;;;;;2.47;1.15;;;7.20;91.40;;;;;;5032425;28;20048;-68
2023/03/10 06:13:58;;;;;;;2.63;1.00;;;7.20;90.00;;;;;;5029865;28;20377;-67
2023/03/10 06:16:24;;;;;;;1.95;0.82;;;7.20;89.20;;;;;;5020700;28;20021;-67
2023/03/10 06:18:53;;;;;;;2.22;0.90;;;7.30;92.70;;;;;;5035631;28;20037;-67
2023/03/10 06:21:19;;;;;;;3.22;1.20;;;7.20;92.60;;;;;;5037071;28;20028;-67
2023/03/10 06:23:44;;;;;;;3.00;1.20;;;7.20;91.20;;;;;;5037146;28;20026;-67
2023/03/10 06:26:14;;;;;;;3.03;1.10;;;7.30;93.70;;;;;;5035848;28;20029;-67
2023/03/10 06:28:41;;;;;;;3.35;1.13;;;7.40;95.70;;;;;;5022356;28;20441;-67
2023/03/10 06:31:20;;;;;;;1.45;0.88;;;7.40;95.00;;;;;;5021077;28;20093;-68
2023/03/10 06:33:46;;;;;;;2.25;1.00;;;7.50;98.00;;;;;;5023895;28;20021;-67
2023/03/10 06:36:14;;;;;;;1.65;0.80;;;7.40;95.20;;;;;;5036522;28;20028;-66
2023/03/10 06:38:40;;;;;;;4.20;0.80;;;7.40;96.60;;;;;;5025148;28;20026;-67
2023/03/10 06:41:06;;;;;;;2.03;0.90;;;7.40;96.80;;;;;;5017196;28;20433;-66
2023/03/10 06:43:32;;;;;;;1.85;1.05;;;7.60;98.00;;;;;;5029406;28;20029;-68
2023/03/10 06:46:01;;;;;;;1.77;0.80;;;7.70;98.00;;;;;;5023783;28;20031;-67
2023/03/10 06:48:26;;;;;;;3.03;0.90;;;8.00;98.00;;;;;;5020700;28;20411;-67
2023/03/10 06:50:52;;;;;;;4.07;0.90;;;8.20;98.00;;;;;;5016996;28;20113;-67
2023/03/10 06:53:20;;;;;;;3.33;1.45;;;8.30;98.00;;;;;;5017275;28;20045;-67
2023/03/10 06:56:17;;;;;;;2.60;0.95;;;8.50;98.00;;;;;;5019702;28;20470;-66
2023/03/10 06:58:43;;;;;;;4.05;1.42;;;8.60;97.90;;;;;;5019466;28;20042;-67
2023/03/10 07:01:41;;;;;;;2.35;1.20;;;8.60;97.70;;;;;;5016946;28;20054;-66
2023/03/10 07:04:08;;;;;;;5.47;1.20;;;8.70;97.50;;;;;;5019826;28;20077;-66
2023/03/10 07:06:34;;;;;;;2.50;0.88;;;8.70;97.50;;;;;;5015904;28;20045;-67
2023/03/10 07:09:00;;;;;;;4.60;1.88;;;8.80;97.00;;;;;;5016609;28;20064;-66
2023/03/10 07:11:26;;;;;;;3.72;1.05;;;8.80;97.00;;;;;;5015684;28;20049;-67
2023/03/10 07:13:51;;;;;;;3.90;1.20;;;8.90;97.00;;;;;;5031365;28;20033;-66
2023/03/10 07:16:17;;;;;;;4.85;1.10;;;8.90;96.90;;;;;;5022344;28;20104;-67
2023/03/10 07:18:43;;;;;;;3.38;1.00;;;9.00;96.80;;;;;;5022805;28;20037;-66
2023/03/10 07:21:11;;;;;;;6.00;1.15;;;9.00;96.00;;;;;;5016726;28;20033;-67
2023/03/10 07:23:37;;;;;;;4.10;1.00;;;9.00;95.90;;;;;;5028662;28;20032;-66
2023/03/10 07:26:06;;;;;;;4.28;1.00;;;9.10;95.40;;;;;;5027858;28;20025;-67
2023/03/10 07:28:32;;;;;;;3.05;0.90;;;9.20;95.10;;;;;;5034212;28;20030;-66
2023/03/10 07:31:02;;;;;;;6.18;2.03;;;9.20;95.10;;;;;;5028669;28;20025;-67
2023/03/10 07:33:28;;;;;;;3.60;1.05;;;9.30;94.50;;;;;;5028066;28;20033;-66
2023/03/10 07:35:53;;;;;;;3.17;1.08;;;9.40;94.30;;;;;;5022131;28;20056;-67
2023/03/10 07:38:19;;;;;;;1.95;0.80;;;9.40;94.70;;;;;;5016346;28;20026;-67
2023/03/10 07:40:44;;;;;;;3.13;1.10;;;9.40;94.20;;;;;;5016212;28;20022;-66
2023/03/10 07:43:10;;;;;;;2.75;0.90;;;9.40;94.50;;;;;;5023536;28;20104;-66
2023/03/10 07:45:37;;;;;;;3.20;0.90;;;9.40;94.40;;;;;;5031258;28;20155;-66
2023/03/10 07:48:03;;;;;;;3.08;1.00;;;9.50;94.30;;;;;;5032976;28;20025;-66
2023/03/10 07:50:28;;;;;;;2.67;1.05;;;9.70;94.50;;;;;;5035239;28;20159;-67
2023/03/10 07:52:55;;;;;;;3.22;0.82;;;9.80;94.20;;;;;;5022254;28;20067;-66
2023/03/10 07:55:20;;;;;;;1.90;0.93;;;9.80;93.70;;;;;;5024326;28;20455;-66
2023/03/10 07:57:46;;;;;;;3.88;0.93;;;9.60;94.50;;;;;;5015209;28;20116;-67
2023/03/10 08:00:13;;;;;;;2.75;1.10;;;9.20;95.70;;;;;;5035421;28;20050;-67
2023/03/10 08:02:39;;;;;;;3.10;0.98;;;8.90;97.00;;;;;;5025937;28;20029;-67
2023/03/10 08:05:07;;;;;;;2.47;0.80;;;8.70;98.00;;;;;;5024609;28;20064;-67
2023/03/10 08:07:32;;;;;;;2.88;0.80;;;8.60;97.50;;;;;;5020418;28;20375;-67
2023/03/10 08:09:58;;;;;;;2.13;0.82;;;8.40;97.70;;;;;;5019812;28;20046;-67
2023/03/10 08:12:26;;;;;;;1.95;0.98;;;8.40;97.90;;;;;;5037101;28;20080;-67
2023/03/10 08:14:52;;;;;;;2.40;0.80;;;8.40;98.00;;;;;;5029742;28;20044;-67
2023/03/10 08:17:18;;;;;;;2.65;0.90;;;8.50;98.00;;;;;;5020357;28;20100;-66
2023/03/10 08:19:44;;;;;;;2.63;1.40;;;8.60;97.30;;;;;;5036905;28;20064;-67
2023/03/10 08:22:09;;;;;;;2.83;0.95;;;8.60;97.00;;;;;;5020071;28;20069;-67
2023/03/10 08:24:38;;;;;;;1.95;0.70;;;8.70;96.80;;;;;;5019538;28;20358;-66
2023/03/10 08:27:04;;;;;;;2.75;0.90;;;8.70;96.20;;;;;;5022633;28;20034;-66
2023/03/10 08:29:32;;;;;;;3.20;1.33;;;8.80;96.10;;;;;;5019390;28;20065;-66
2023/03/10 08:31:58;;;;;;;10.30;4.65;;;8.80;95.90;;;;;;5019701;28;20068;-66
2023/03/10 08:34:23;;;;;;;10.75;4.07;;;8.90;95.70;;;;;;5019322;28;20049;-68
2023/03/10 08:36:49;;;;;;;1.88;0.80;;;9.10;95.40;;;;;;5031410;28;20030;-68
2023/03/10 08:39:14;;;;;;;2.05;0.80;;;9.30;94.70;;;;;;5019347;28;20092;-67
2023/03/10 08:41:44;;;;;;;1.90;0.70;;;9.40;93.30;;;;;;5017992;28;20069;-67
2023/03/10 08:44:14;;;;;;;2.20;0.98;;;9.60;93.10;;;;;;5019242;28;20025;-67
2023/03/10 08:46:41;;;;;;;2.03;0.80;;;9.50;92.70;;;;;;5026569;28;20033;-67
2023/03/10 08:49:07;;;;;;;2.47;0.70;;;9.50;92.70;;;;;;5019131;28;20334;-67
2023/03/10 08:51:34;;;;;;;4.25;1.17;;;9.50;92.30;;;;;;5019160;28;20083;-67
2023/03/10 08:53:59;;;;;;;2.70;0.85;;;9.50;92.40;;;;;;5019058;28;20472;-67
2023/03/10 08:56:25;;;;;;;2.45;0.77;;;9.50;91.70;;;;;;5018766;28;20108;-66
2023/03/10 08:58:59;;;;;;;3.35;0.90;;;9.60;91.60;;;;;;5035725;28;20049;-67
2023/03/10 09:01:30;;;;;;;2.58;0.80;;;9.70;91.80;;;;;;5024771;28;20109;-66
2023/03/10 09:03:56;;;;;;;2.75;0.90;;;9.70;91.30;;;;;;5019005;28;20026;-66
2023/03/10 09:06:21;;;;;;;2.80;1.02;;;9.60;91.50;;;;;;5020346;28;20037;-67
2023/03/10 09:08:49;;;;;;;3.67;1.00;;;9.60;90.80;;;;;;5027456;28;20327;-66
2023/03/10 09:11:20;;;;;;;6.88;1.17;;;9.60;91.00;;;;;;5018641;28;20026;-66
2023/03/10 09:13:45;;;;;;;4.40;0.93;;;9.70;90.40;;;;;;5017290;28;20022;-66
2023/03/10 09:16:12;;;;;;;5.00;1.30;;;10.00;90.00;;;;;;5019083;28;20026;-66
2023/03/10 09:18:38;;;;;;;5.32;0.90;;;10.60;87.90;;;;;;5023196;28;20021;-66
2023/03/10 09:21:04;;;;;;;4.78;1.13;;;10.40;88.00;;;;;;5028564;28;20038;-66
2023/03/10 09:23:29;;;;;;;5.47;1.02;;;10.40;87.70;;;;;;5018626;28;20080;-66
2023/03/10 09:25:55;;;;;;;7.90;1.67;;;10.50;88.20;;;;;;5018751;28;20032;-67
2023/03/10 09:28:20;;;;;;;3.53;1.02;;;10.50;87.60;;;;;;5019161;28;20056;-66
2023/03/10 09:30:47;;;;;;;4.43;1.17;;;10.30;88.90;;;;;;5026050;28;20075;-67
2023/03/10 09:33:18;;;;;;;5.43;1.73;;;9.90;90.20;;;;;;5018939;28;20037;-66
2023/03/10 09:35:44;;;;;;;6.60;1.15;;;9.50;91.80;;;;;;5019000;28;20052;-66
2023/03/10 09:38:10;;;;;;;5.50;1.40;;;9.00;93.80;;;;;;5023161;28;20033;-67
2023/03/10 09:40:36;;;;;;;7.85;2.38;;;8.80;94.70;;;;;;5037806;28;20417;-66
2023/03/10 09:43:04;;;;;;;4.60;1.40;;;8.80;95.60;;;;;;5024675;28;20120;-66
2023/03/10 09:45:36;;;;;;;4.18;1.00;;;8.70;96.10;;;;;;5018157;28;20090;-67
2023/03/10 09:48:13;;;;;;;4.72;1.27;;;8.80;96.80;;;;;;5018183;28;20100;-67
2023/03/10 09:50:51;;;;;;;16.40;7.97;;;8.90;95.90;;;;;;5018099;28;20022;-66
2023/03/10 09:53:35;;;;;;;5.38;1.42;;;8.90;96.00;;;;;;5020878;28;20045;-67
2023/03/10 09:56:08;;;;;;;4.70;1.23;;;8.90;96.10;;;;;;5037631;28;20307;-66
2023/03/10 09:58:45;;;;;;;2.90;1.05;;;8.80;96.30;;;;;;5022680;28;20029;-66
2023/03/10 10:01:20;;;;;;;3.17;1.05;;;8.70;96.20;;;;;;5017720;28;20327;-67
2023/03/10 10:03:55;;;;;;;3.63;1.13;;;8.70;96.50;;;;;;5025471;28;20033;-67
2023/03/10 10:06:24;;;;;;;5.32;1.88;;;9.10;97.80;;;;;;5037623;28;20017;-67
2023/03/10 10:09:02;;;;;;;3.70;1.15;;;9.30;95.90;;;;;;5026981;28;20029;-67
2023/03/10 10:11:30;;;;;;;2.78;0.82;;;9.20;95.60;;;;;;5036077;28;20052;-66
2023/03/10 10:14:04;;;;;;;2.20;0.88;;;9.00;95.50;;;;;;5035318;28;20029;-67
2023/03/10 10:16:50;;;;;;;4.90;1.70;;;9.60;97.10;;;;;;5037476;28;20025;-67
2023/03/10 10:19:20;;;;;;;2.17;0.80;;;10.60;92.30;;;;;;5026343;28;20148;-67
2023/03/10 10:22:19;;;;;;;1.67;0.60;;;10.90;90.30;;;;;;5029575;28;20032;-67
2023/03/10 10:25:14;;;;;;;1.88;0.95;;;11.00;90.50;;;;;;5017409;28;20018;-67
2023/03/10 10:27:41;;;;;;;3.33;1.02;;;11.00;88.90;;;;;;5016256;28;20026;-67
2023/03/10 10:30:28;;;;;;;3.80;0.80;;;10.60;90.50;;;;;;5017527;28;20041;-67
2023/03/10 10:32:58;;;;;;;4.07;0.93;;;10.50;91.00;;;;;;5017415;28;20030;-67
2023/03/10 10:35:26;;;;;;;2.67;0.70;;;10.60;90.60;;;;;;5019352;28;20334;-66
2023/03/10 10:38:06;;;;;;;2.53;0.80;;;10.10;90.90;;;;;;5017218;28;20026;-67
2023/03/10 10:40:35;;;;;;;2.92;1.02;;;9.70;92.30;;;;;;5024661;28;20034;-66
2023/03/10 10:43:04;;;;;;;3.08;1.00;;;9.60;93.20;;;;;;5026137;28;20034;-67
2023/03/10 10:45:38;;;;;;;2.30;0.70;;;9.70;93.70;;;;;;5017197;28;20065;-66
2023/03/10 10:48:24;;;;;;;4.38;1.00;;;9.70;92.90;;;;;;5017133;28;20029;-66
2023/03/10 10:50:53;;;;;;;2.20;0.80;;;9.40;93.30;;;;;;5027095;28;20037;-67
2023/03/10 10:53:23;;;;;;;3.05;0.80;;;9.30;94.00;;;;;;5032781;28;20422;-66
2023/03/10 10:56:11;;;;;;;3.00;0.80;;;9.30;93.50;;;;;;5036632;28;20025;-66
2023/03/10 10:58:39;;;;;;;7.18;4.13;;;9.40;93.80;;;;;;5023765;28;20087;-67
2023/03/10 11:01:08;;;;;;;3.13;0.85;;;9.70;93.90;;;;;;5026318;28;20044;-66
2023/03/10 11:03:38;;;;;;;1.70;0.80;;;9.80;91.90;;;;;;5015774;28;20026;-66
2023/03/10 11:06:27;;;;;;;1.30;0.77;;;9.90;92.10;;;;;;5016670;28;20049;-66
2023/03/10 11:09:18;;;;;;;1.45;0.60;;;10.10;92.50;;;;;;5018055;28;20025;-66
2023/03/10 11:11:52;;;;;;;3.75;1.05;;;10.00;92.10;;;;;;5015490;28;20093;-67
2023/03/10 11:14:18;;;;;;;;;;;9.80;92.10;;;;;;5017040;28;20479;-66
2023/03/10 11:17:06;;;;;;;2.40;0.90;;;9.70;92.00;;;;;;5019191;28;20250;-65
2023/03/10 11:20:00;;;;;;;1.90;0.80;;;9.60;92.30;;;;;;5029294;28;20030;-65
2023/03/10 11:22:26;;;;;;;;;;;9.70;92.00;;;;;;5033791;28;20121;-65
2023/03/10 11:25:04;;;;;;;1.83;0.73;;;9.70;91.60;;;;;;5024499;28;19952;-65
2023/03/10 11:27:47;;;;;;;4.95;1.85;;;9.70;91.70;;;;;;5031024;28;20029;-65
2023/03/10 11:30:20;;;;;;;3.50;0.90;;;9.90;92.00;;;;;;5017454;28;20112;-67
2023/03/10 11:33:01;;;;;;;4.43;1.07;;;10.20;89.80;;;;;;5016747;28;20030;-67
2023/03/10 11:35:36;;;;;;;3.00;0.90;;;9.90;90.20;;;;;;5016357;28;20080;-66
2023/03/10 11:38:11;;;;;;;2.75;1.63;;;9.80;91.20;;;;;;5016530;28;20419;-66
2023/03/10 11:40:53;;;;;;;2.10;0.90;;;9.60;91.20;;;;;;5016267;28;20033;-66
2023/03/10 11:43:30;;;;;;;2.90;0.80;;;9.20;91.90;;;;;;5017028;28;20048;-66
2023/03/10 11:46:21;;;;;;;4.90;1.17;;;9.10;93.40;;;;;;5028798;28;20026;-66
2023/03/10 11:49:00;;;;;;;2.45;1.02;;;9.00;93.70;;;;;;5016067;28;20109;-66
2023/03/10 11:51:33;;;;;;;1.63;0.85;;;8.80;94.50;;;;;;5016442;28;20164;-66
2023/03/10 11:54:03;;;;;;;4.75;0.90;;;9.00;94.30;;;;;;5025140;28;20040;-66
2023/03/10 11:56:30;;;;;;;4.97;0.93;;;9.10;94.90;;;;;;5034320;28;20037;-66
2023/03/10 11:59:10;;;;;;;2.45;0.90;;;9.20;93.80;;;;;;5026599;28;20036;-66
2023/03/10 12:02:13;;;;;;;2.00;0.88;;;9.10;94.80;;;;;;5031371;28;20038;-65
2023/03/10 12:04:50;;;;;;;2.85;0.80;;;8.80;94.70;;;;;;5020468;28;20414;-66
2023/03/10 12:07:31;;;;;;;2.08;1.00;;;8.80;95.60;;;;;;5016038;28;20061;-66
2023/03/10 12:10:01;;;;;;;1.58;0.82;;;8.90;95.80;;;;;;5028913;28;20029;-66
2023/03/10 12:12:31;;;;;;;2.00;0.88;;;9.40;95.60;;;;;;5034036;28;20068;-66
2023/03/10 12:15:00;;;;;;;3.40;1.08;;;9.60;94.20;;;;;;5022242;28;20453;-66
2023/03/10 12:17:26;;;;;;;2.00;1.10;;;9.80;94.60;;;;;;5015968;28;20032;-66
2023/03/10 12:20:12;;;;;;;2.58;0.93;;;10.00;92.40;;;;;;5027760;28;20108;-66
2023/03/10 12:22:49;;;;;;;1.98;0.90;;;9.80;93.10;;;;;;5035682;28;20025;-66
2023/03/10 12:25:27;;;;;;;2.13;0.90;;;9.60;93.10;;;;;;5016300;28;20032;-66
2023/03/10 12:28:14;;;;;;;2.58;1.10;;;9.50;94.20;;;;;;5013472;28;20113;-65
2023/03/10 12:30:58;;;;;;;0.88;0.68;;;9.40;94.90;;;;;;5019540;28;20414;-65
2023/03/10 12:33:29;;;;;;;2.10;0.90;;;9.50;94.10;;;;;;5015969;28;20034;-66
2023/03/10 12:36:21;;;;;;;2.35;1.10;;;9.30;95.30;;;;;;5029051;28;20112;-66
2023/03/10 12:38:56;;;;;;;2.75;1.00;;;9.30;94.50;;;;;;5023074;28;20055;-66
2023/03/10 12:41:25;;;;;;;1.88;0.88;;;9.20;95.40;;;;;;5031355;28;20475;-65
2023/03/10 12:44:22;;;;;;;1.38;0.70;;;9.50;94.90;;;;;;5019014;28;20362;-66
2023/03/10 12:46:56;;;;;;;3.30;1.50;;;9.60;93.90;;;;;;5020568;28;20447;-65
2023/03/10 12:49:40;;;;;;;1.67;1.10;;;9.50;95.10;;;;;;5022797;28;20022;-66
2023/03/10 12:52:05;;;;;;;2.65;1.10;;;9.10;95.30;;;;;;5021539;28;20037;-66
2023/03/10 12:54:53;;;;;;;4.63;2.17;;;9.00;95.90;;;;;;5034399;28;20326;-66
2023/03/10 12:57:39;;;;;;;4.15;2.65;;;8.80;96.40;;;;;;5017972;28;20030;-64
2023/03/10 13:00:24;;;;;;;2.38;0.80;;;8.60;96.80;;;;;;5032680;28;20163;-65
2023/03/10 13:02:59;;;;;;;1.00;0.80;;;8.60;96.90;;;;;;5024411;28;20037;-66
2023/03/10 13:05:34;;;;;;;1.90;0.80;;;8.90;96.70;;;;;;5018889;28;20088;-66
2023/03/10 13:08:16;;;;;;;1.75;0.70;;;9.40;95.40;;;;;;5024632;28;20021;-66